Time;durP1;ratioP1;P1;durP2;ratioP2;P2;SDS_P1;SDS_P2;PMS_P1;PMS_P2;Temp;Humidity;BMP_temperature;BMP_pressure;BME280_temperature;BME280_humidity;BME280_pressure;Samples;Min_cycle;Max_cycle;Signal;HPM_P1;HPM_P2
2022/06/06 00:02:06;;;;;;;4.85;3.92;;;;;;;19.99;69.44;94495.03;5050724;28;20196;-79
2022/06/06 00:04:34;;;;;;;7.13;3.13;;;;;;;20.07;69.57;94491.91;5050306;28;20234;-79
2022/06/06 00:07:01;;;;;;;7.43;4.22;;;;;;;20.09;70.07;94495.03;5050300;28;20227;-79
2022/06/06 00:09:28;;;;;;;7.45;4.20;;;;;;;20.11;70.24;94492.69;5050407;28;20231;-79
2022/06/06 00:11:56;;;;;;;8.30;3.83;;;;;;;20.09;70.58;94486.78;5050546;28;20226;-79
2022/06/06 00:14:24;;;;;;;7.32;3.42;;;;;;;20.12;70.89;94482.47;5050015;28;20242;-79
2022/06/06 00:16:52;;;;;;;4.38;3.30;;;;;;;20.05;70.63;94490.72;5050323;28;20281;-79
2022/06/06 00:19:19;;;;;;;5.03;3.00;;;;;;;19.90;71.70;94491.88;5050139;28;20235;-79
2022/06/06 00:21:46;;;;;;;5.28;3.30;;;;;;;19.84;71.43;94494.19;5050056;28;20227;-79
2022/06/06 00:24:13;;;;;;;6.88;3.17;;;;;;;19.86;71.47;94491.84;5050150;28;20299;-79
2022/06/06 00:26:42;;;;;;;8.60;3.35;;;;;;;19.99;71.47;94489.53;5050695;28;20281;-79
2022/06/06 00:29:10;;;;;;;7.15;4.60;;;;;;;20.00;70.85;94485.59;5050036;28;20227;-79
2022/06/06 00:37:11;;;;;;;4.75;3.40;;;;;;;19.86;72.12;94465.16;5049832;28;20262;-79
2022/06/06 00:39:38;;;;;;;6.93;3.85;;;;;;;19.70;72.57;94450.97;5050054;28;20195;-79
2022/06/06 00:42:12;;;;;;;4.30;3.47;;;;;;;19.69;72.64;94443.13;5050409;28;20272;-79
2022/06/06 00:44:41;;;;;;;5.53;3.13;;;;;;;19.70;72.62;94439.19;5050738;28;20270;-79
2022/06/06 00:47:17;;;;;;;7.53;3.80;;;;;;;19.94;71.89;94434.94;5053154;28;20204;-79
2022/06/06 00:49:50;;;;;;;6.13;3.00;;;;;;;20.01;71.46;94435.72;5053699;28;20321;-79
2022/06/06 00:52:21;;;;;;;6.15;4.00;;;;;;;20.09;70.74;94426.25;5053455;28;20223;-79
2022/06/06 00:54:49;;;;;;;5.25;3.85;;;;;;;20.20;70.30;94427.06;5053084;28;20590;-79
2022/06/06 00:57:21;;;;;;;7.78;4.20;;;;;;;20.39;70.55;94406.63;5053512;28;20646;-79
2022/06/06 00:59:50;;;;;;;6.45;4.20;;;;;;;20.06;71.87;94402.31;5053441;28;20204;-79
2022/06/06 01:02:17;;;;;;;3.70;2.75;;;;;;;19.93;71.98;94414.09;5053624;28;20219;-79
2022/06/06 01:04:46;;;;;;;6.82;2.70;;;;;;;19.97;71.60;94403.88;5056364;28;20294;-79
2022/06/06 01:07:13;;;;;;;5.85;3.35;;;;;;;20.02;71.82;94392.50;5053645;28;20693;-79
2022/06/06 01:09:42;;;;;;;5.28;3.55;;;;;;;19.85;71.29;94397.59;5039257;28;20236;-79
2022/06/06 01:12:14;;;;;;;7.30;3.33;;;;;;;19.78;71.66;94386.59;5041678;28;20314;-79
2022/06/06 01:14:47;;;;;;;6.07;4.07;;;;;;;19.84;72.03;94385.03;5052570;28;20301;-79
2022/06/06 01:17:25;;;;;;;7.75;3.35;;;;;;;19.99;72.05;94380.31;5053244;28;20712;-80
2022/06/06 01:20:33;;;;;;;5.22;3.42;;;;;;;20.01;71.68;94372.47;5053097;28;20223;-79
2022/06/06 01:23:29;;;;;;;7.38;3.30;;;;;;;19.90;72.88;94368.94;5032750;28;20566;-80
2022/06/06 01:26:27;;;;;;;3.75;3.10;;;;;;;19.88;74.46;94368.53;5043286;28;20285;-80
2022/06/06 01:29:01;;;;;;;5.78;3.38;;;;;;;19.81;75.66;94363.84;5049639;28;20281;-80
2022/06/06 01:31:36;;;;;;;6.72;3.63;;;;;;;19.68;76.76;94359.88;5052801;28;20647;-78
2022/06/06 01:34:07;;;;;;;7.20;3.55;;;;;;;19.47;76.10;94359.84;5052875;28;20318;-78
2022/06/06 01:36:37;;;;;;;8.82;3.90;;;;;;;19.33;77.04;94376.28;5052935;28;20196;-79
2022/06/06 01:39:11;;;;;;;8.15;4.93;;;;;;;19.15;79.18;94400.97;5038584;28;20229;-78
2022/06/06 01:41:47;;;;;;;5.93;2.72;;;;;;;18.63;79.76;94509.31;5052448;28;20192;-78
2022/06/06 01:44:23;;;;;;;5.50;4.45;;;;;;;18.82;78.60;94503.59;5053013;28;20188;-75
2022/06/06 01:46:51;;;;;;;8.50;4.53;;;;;;;19.39;75.58;94518.41;5053016;28;20253;-79
2022/06/06 01:49:20;;;;;;;7.70;3.70;;;;;;;19.40;77.78;94535.66;5052085;28;20230;-78
2022/06/06 01:52:01;;;;;;;12.00;4.50;;;;;;;18.70;82.29;94531.34;5052266;28;20287;-80
2022/06/06 01:54:29;;;;;;;8.15;3.35;;;;;;;18.23;84.45;94513.69;5052494;28;20307;-80
2022/06/06 01:56:57;;;;;;;12.73;5.00;;;;;;;18.00;87.69;94493.91;5051878;28;20271;-77
2022/06/06 01:59:26;;;;;;;6.75;4.07;;;;;;;18.01;87.68;94457.13;5052075;28;20212;-78
2022/06/06 02:01:53;;;;;;;5.80;3.65;;;;;;;18.08;86.21;94444.25;5052304;28;20227;-78
2022/06/06 02:04:20;;;;;;;6.28;3.20;;;;;;;18.14;86.44;94461.13;5052043;28;20308;-77
2022/06/06 02:06:47;;;;;;;7.57;2.40;;;;;;;18.19;86.70;94463.50;5052212;28;20245;-76
2022/06/06 02:09:14;;;;;;;5.55;2.17;;;;;;;18.36;85.15;94468.34;5051615;28;20305;-79
2022/06/06 02:11:41;;;;;;;3.00;1.98;;;;;;;18.34;85.47;94473.44;5052422;28;20208;-78
2022/06/06 02:14:09;;;;;;;3.45;1.98;;;;;;;18.34;84.88;94481.66;5051391;28;20289;-80
2022/06/06 02:16:37;;;;;;;3.08;1.63;;;;;;;18.43;84.83;94495.84;5052303;28;20480;-76
2022/06/06 02:19:06;;;;;;;3.40;1.80;;;;;;;18.50;83.47;94516.25;5052136;28;20208;-79
2022/06/06 02:21:33;;;;;;;9.20;2.03;;;;;;;18.55;84.65;94529.63;5051425;28;20230;-75
2022/06/06 02:24:00;;;;;;;4.47;1.85;;;;;;;18.67;83.45;94543.06;5051337;28;20785;-77
2022/06/06 02:26:27;;;;;;;5.53;1.77;;;;;;;18.61;83.41;94561.03;5051328;28;20281;-78
2022/06/06 02:28:54;;;;;;;4.53;2.42;;;;;;;18.61;83.55;94558.31;5051632;28;20231;-76
2022/06/06 02:31:21;;;;;;;4.22;2.35;;;;;;;18.65;82.73;94564.63;5051819;28;20228;-77
2022/06/06 02:33:49;;;;;;;4.65;2.25;;;;;;;18.65;83.34;94589.31;5051509;28;20623;-77
2022/06/06 02:36:16;;;;;;;3.70;2.25;;;;;;;18.83;81.18;94587.50;5051871;28;20203;-75
2022/06/06 02:38:42;;;;;;;3.15;1.33;;;;;;;18.78;81.79;94587.84;5051888;28;20206;-78
2022/06/06 02:41:09;;;;;;;4.65;2.53;;;;;;;18.54;85.08;94588.41;5051119;28;20757;-79
2022/06/06 02:43:37;;;;;;;5.15;2.53;;;;;;;18.22;88.82;94572.44;5051677;28;20603;-78
2022/06/06 02:46:04;;;;;;;6.43;2.72;;;;;;;17.92;92.49;94549.81;5051592;28;20737;-78
2022/06/06 02:48:31;;;;;;;5.95;3.17;;;;;;;17.82;93.63;94536.78;5051558;28;20227;-75
2022/06/06 02:51:00;;;;;;;10.52;3.65;;;;;;;17.87;93.70;94511.78;5051137;28;20281;-74
2022/06/06 02:53:27;;;;;;;8.32;3.75;;;;;;;17.77;94.28;94496.81;5050317;28;20227;-74
2022/06/06 02:55:55;;;;;;;11.95;3.78;;;;;;;17.79;95.42;94472.56;5050696;28;20214;-74
2022/06/06 02:58:23;;;;;;;7.15;3.47;;;;;;;17.83;95.84;94445.19;5050432;28;20215;-74
2022/06/06 03:00:50;;;;;;;8.82;3.53;;;;;;;17.81;96.72;94448.31;5050929;28;20231;-74
2022/06/06 03:03:17;;;;;;;6.95;3.65;;;;;;;17.84;96.18;94446.78;5050889;28;20231;-73
2022/06/06 03:05:55;;;;;;;9.57;3.60;;;;;;;17.84;96.36;94453.03;5051284;28;20615;-73
2022/06/06 03:08:43;;;;;;;5.70;3.70;;;;;;;17.89;96.04;94463.66;5037674;28;20235;-72
2022/06/06 03:11:22;;;;;;;14.10;4.18;;;;;;;17.77;96.01;94467.44;5050251;28;20198;-73
2022/06/06 03:14:11;;;;;;;10.23;3.88;;;;;;;17.80;96.97;94484.31;5050392;28;20251;-74
2022/06/06 03:22:49;;;;;;;9.15;3.67;;;;;;;17.86;97.91;94513.75;5050032;28;20330;-74
2022/06/06 03:25:23;;;;;;;9.65;4.10;;;;;;;17.81;98.45;94524.25;5049839;28;20697;-72
2022/06/06 03:27:56;;;;;;;10.65;4.18;;;;;;;17.83;98.89;94538.38;5038160;28;20204;-72
2022/06/06 03:30:31;;;;;;;9.38;4.72;;;;;;;17.82;99.18;94543.06;5050418;28;20231;-74
2022/06/06 03:33:12;;;;;;;10.15;5.40;;;;;;;17.72;99.70;94555.50;5050365;28;20206;-72
2022/06/06 03:35:47;;;;;;;10.60;4.93;;;;;;;17.70;100.00;94568.78;5050220;28;20249;-74
2022/06/06 03:38:20;;;;;;;16.92;6.68;;;;;;;17.71;100.00;94569.56;5050261;28;20557;-76
2022/06/06 03:40:58;;;;;;;13.73;7.25;;;;;;;17.77;100.00;94572.78;5050017;28;20226;-76
2022/06/06 03:43:35;;;;;;;16.02;6.85;;;;;;;17.71;100.00;94564.88;5052535;28;20639;-72
2022/06/06 03:46:14;;;;;;;11.95;6.15;;;;;;;17.68;100.00;94557.38;5059455;28;20731;-74
2022/06/06 03:48:52;;;;;;;12.98;7.03;;;;;;;17.74;100.00;94549.63;5050645;28;20239;-75
2022/06/06 03:51:32;;;;;;;14.60;6.35;;;;;;;17.65;100.00;94554.59;5050301;28;20231;-76
2022/06/06 03:54:11;;;;;;;12.18;7.60;;;;;;;17.73;100.00;94556.28;5049715;28;20677;-76
2022/06/06 03:56:52;;;;;;;11.57;7.10;;;;;;;17.84;100.00;94556.38;5050688;28;20203;-79
2022/06/06 03:59:20;;;;;;;22.88;9.88;;;;;;;17.83;99.05;94552.84;5050654;28;20728;-83
2022/06/06 04:01:49;;;;;;;14.55;6.78;;;;;;;17.86;99.10;94545.84;5037920;28;20258;-81
2022/06/06 04:04:17;;;;;;;15.00;7.57;;;;;;;17.85;98.85;94541.53;5050918;28;20230;-79
2022/06/06 04:06:47;;;;;;;11.75;6.55;;;;;;;17.74;98.36;94547.69;5050453;28;20600;-78
2022/06/06 04:09:15;;;;;;;13.77;8.13;;;;;;;17.68;98.95;94537.41;5050712;28;20242;-79
2022/06/06 04:11:55;;;;;;;10.95;6.40;;;;;;;17.66;99.04;94529.56;5051131;28;20224;-79
2022/06/06 04:14:35;;;;;;;11.00;6.93;;;;;;;17.77;98.60;94517.97;5049793;28;20235;-78
2022/06/06 04:17:16;;;;;;;17.73;7.70;;;;;;;17.65;99.17;94517.03;5050668;28;20314;-79
2022/06/06 04:19:52;;;;;;;13.45;7.45;;;;;;;17.75;98.63;94527.34;5039168;28;20716;-78
2022/06/06 04:22:33;;;;;;;13.45;7.60;;;;;;;17.73;98.79;94539.84;5054623;28;20195;-77
2022/06/06 04:25:14;;;;;;;11.13;7.45;;;;;;;17.75;98.91;94538.31;5054108;28;20227;-77
2022/06/06 04:27:48;;;;;;;13.00;7.75;;;;;;;17.77;99.10;94523.44;5054235;28;20859;-77
2022/06/06 04:30:23;;;;;;;14.80;7.82;;;;;;;17.94;98.71;94533.78;5054311;28;20241;-77
2022/06/06 04:33:00;;;;;;;15.52;7.95;;;;;;;18.07;98.54;94540.56;5053975;28;20268;-78
2022/06/06 04:35:32;;;;;;;11.27;7.15;;;;;;;18.33;97.53;94534.94;5053758;28;20242;-78
2022/06/06 04:38:06;;;;;;;15.25;7.68;;;;;;;18.43;97.14;94528.75;5054576;28;20196;-78
2022/06/06 04:40:40;;;;;;;11.27;7.53;;;;;;;18.60;96.47;94532.03;5041005;28;20203;-78
2022/06/06 04:43:15;;;;;;;14.38;7.35;;;;;;;18.71;94.51;94527.44;5054032;28;20223;-78
2022/06/06 04:45:50;;;;;;;11.98;6.72;;;;;;;18.96;93.17;94533.88;5065438;28;20203;-79
2022/06/06 04:48:18;;;;;;;12.45;6.68;;;;;;;19.60;91.56;94522.41;5052727;28;20223;-79
2022/06/06 04:50:46;;;;;;;10.77;6.38;;;;;;;20.06;88.83;94525.28;5054003;28;20243;-79
2022/06/06 04:53:22;;;;;;;13.82;6.65;;;;;;;20.82;86.71;94530.44;5053480;28;20215;-80
2022/06/06 04:55:51;;;;;;;12.15;5.97;;;;;;;22.70;81.85;94524.88;5053729;28;20605;-80
2022/06/06 04:58:21;;;;;;;15.02;7.32;;;;;;;23.96;73.97;94525.13;5053103;28;20285;-79
2022/06/06 05:00:48;;;;;;;13.98;5.68;;;;;;;24.17;70.73;94530.41;5053552;28;20230;-78
2022/06/06 05:03:15;;;;;;;10.85;5.32;;;;;;;23.84;73.17;94523.72;5053304;28;20278;-78
2022/06/06 05:05:57;;;;;;;10.20;7.05;;;;;;;23.16;73.33;94545.78;5052881;28;20219;-79
2022/06/06 05:08:42;;;;;;;8.90;6.45;;;;;;;22.85;73.72;94538.59;5040811;28;20195;-79
2022/06/06 05:11:27;;;;;;;7.97;5.45;;;;;;;22.36;75.74;94537.78;5053169;28;20228;-79
2022/06/06 05:14:08;;;;;;;15.95;5.10;;;;;;;22.36;76.13;94537.78;5052978;28;20301;-78
2022/06/06 05:17:11;;;;;;;10.50;7.05;;;;;;;22.63;75.80;94540.72;5041192;28;20228;-78
2022/06/06 05:20:00;;;;;;;11.02;6.78;;;;;;;22.33;76.32;94544.09;5037771;28;20277;-78
2022/06/06 05:22:49;;;;;;;11.05;6.28;;;;;;;22.15;77.85;94546.16;5053198;28;20236;-78
2022/06/06 05:25:38;;;;;;;9.88;6.15;;;;;;;22.48;75.62;94551.09;5052687;28;20282;-78
2022/06/06 05:28:30;;;;;;;8.65;5.97;;;;;;;23.19;74.00;94558.81;5042180;28;20220;-78
2022/06/06 05:31:05;;;;;;;11.00;5.93;;;;;;;23.77;72.92;94551.47;5052211;28;20609;-77
2022/06/06 05:33:37;;;;;;;12.00;5.70;;;;;;;24.16;69.45;94545.44;5053173;28;20192;-77
2022/06/06 05:36:38;;;;;;;12.55;6.03;;;;;;;24.34;68.67;94534.13;5052729;28;20270;-77
2022/06/06 05:39:21;;;;;;;10.23;4.97;;;;;;;24.52;69.45;94539.41;5039044;28;20704;-77
2022/06/06 05:42:05;;;;;;;10.40;5.22;;;;;;;24.71;66.99;94547.81;5052591;28;20196;-78
2022/06/06 05:44:41;;;;;;;12.85;5.90;;;;;;;24.60;68.07;94547.16;5052436;28;20612;-78
2022/06/06 05:47:21;;;;;;;9.70;5.13;;;;;;;24.67;64.62;94549.84;5052710;28;20227;-78
2022/06/06 05:50:03;;;;;;;7.78;5.00;;;;;;;25.45;62.77;94545.75;5052303;28;20242;-78
2022/06/06 05:52:48;;;;;;;12.00;5.10;;;;;;;26.31;60.10;94544.06;5052266;28;20200;-78
2022/06/06 05:55:31;;;;;;;10.82;5.30;;;;;;;28.06;56.32;94539.19;5052541;28;20257;-77
2022/06/06 05:58:20;;;;;;;6.80;4.85;;;;;;;29.30;52.60;94531.72;5052417;28;20187;-77
2022/06/06 06:01:01;;;;;;;12.07;5.00;;;;;;;30.28;50.91;94525.84;5052488;28;20211;-78
2022/06/06 06:03:49;;;;;;;10.95;5.30;;;;;;;29.88;49.01;94522.94;5038986;28;20309;-79
2022/06/06 06:06:23;;;;;;;9.38;4.25;;;;;;;29.97;48.81;94528.59;5052472;28;20291;-78
2022/06/06 06:09:03;;;;;;;6.45;4.45;;;;;;;29.53;50.44;94539.72;5052120;28;20651;-77
2022/06/06 06:11:57;;;;;;;10.00;4.90;;;;;;;28.47;52.51;94543.16;5051798;28;20286;-77
2022/06/06 06:14:37;;;;;;;11.10;4.53;;;;;;;27.42;54.63;94554.09;5051929;28;20235;-79
2022/06/06 06:17:05;;;;;;;11.55;4.72;;;;;;;26.49;56.87;94550.00;5052189;28;20542;-78
2022/06/06 06:19:39;;;;;;;7.75;4.68;;;;;;;26.61;56.52;94552.09;5051844;28;20285;-79
2022/06/06 06:22:08;;;;;;;8.80;3.95;;;;;;;27.28;55.22;94543.31;5051500;28;20235;-80
2022/06/06 06:24:38;;;;;;;7.68;4.05;;;;;;;27.67;54.10;94542.31;5039334;28;20200;-80
2022/06/06 06:27:06;;;;;;;9.70;4.40;;;;;;;27.37;55.19;94541.47;5041069;28;20212;-80
2022/06/06 06:29:33;;;;;;;9.48;5.10;;;;;;;26.55;57.34;94546.25;5048530;28;20629;-80
2022/06/06 06:32:32;;;;;;;8.77;4.70;;;;;;;27.13;57.00;94545.69;5035031;28;20610;-80
2022/06/06 06:35:13;;;;;;;8.57;4.60;;;;;;;27.84;55.23;94535.47;5044203;28;20256;-80
2022/06/06 06:38:01;;;;;;;10.68;4.60;;;;;;;28.84;52.45;94530.47;5038177;28;20271;-79
2022/06/06 06:40:42;;;;;;;8.27;5.10;;;;;;;29.31;52.60;94527.72;5035891;28;20768;-79
2022/06/06 06:43:21;;;;;;;10.57;4.88;;;;;;;29.27;50.10;94525.03;5041680;28;20192;-79
2022/06/06 06:45:54;;;;;;;9.90;5.43;;;;;;;29.23;50.84;94516.03;5051625;28;20760;-78
2022/06/06 06:48:25;;;;;;;11.60;5.43;;;;;;;29.69;49.91;94508.81;5045267;28;20237;-84
2022/06/06 06:51:03;;;;;;;11.77;5.47;;;;;;;31.47;47.23;94501.84;5042266;28;20215;-82
2022/06/06 06:53:49;;;;;;;8.93;5.35;;;;;;;31.12;46.04;94498.56;5049128;28;20709;-84
2022/06/06 06:56:30;;;;;;;12.68;6.03;;;;;;;30.83;46.32;94498.91;5049196;28;20539;-80
2022/06/06 06:59:08;;;;;;;17.40;5.75;;;;;;;33.45;42.40;94466.47;5052204;28;20238;-85
2022/06/06 07:08:32;;;;;;;9.50;5.10;;;;;;;31.97;43.53;94480.06;5056001;28;20231;-80
2022/06/06 07:10:30;;;;;;;12.05;5.55;;;;;;;31.42;45.07;94480.84;5051032;28;20239;-79
2022/06/06 07:13:22;;;;;;;11.98;5.80;;;;;;;33.52;41.23;94462.50;5050666;28;20277;-79
2022/06/06 07:15:53;;;;;;;10.90;6.20;;;;;;;32.95;42.37;94465.38;5050941;28;20298;-78
2022/06/06 07:18:26;;;;;;;9.65;5.93;;;;;;;31.54;45.81;94479.13;5051013;28;20251;-80
2022/06/06 07:20:54;;;;;;;10.52;5.57;;;;;;;32.04;43.93;94465.72;5051207;28;20257;-82
2022/06/06 07:23:24;;;;;;;12.20;6.15;;;;;;;30.67;46.92;94462.81;5050539;28;20285;-78
2022/06/06 07:25:51;;;;;;;12.48;5.57;;;;;;;29.38;51.54;94462.50;5049663;28;20353;-77
2022/06/06 07:28:21;;;;;;;11.02;6.15;;;;;;;30.05;48.88;94460.06;5050785;28;20195;-78
2022/06/06 07:30:57;;;;;;;10.52;5.50;;;;;;;30.54;48.43;94464.94;5050431;28;20310;-78
2022/06/06 07:33:36;;;;;;;10.75;5.93;;;;;;;29.49;49.49;94460.91;5050522;28;20191;-74
2022/06/06 07:36:14;;;;;;;9.85;5.90;;;;;;;30.52;48.67;94464.59;5038060;28;20199;-75
2022/06/06 07:39:02;;;;;;;12.25;6.07;;;;;;;28.85;50.61;94477.03;5049548;28;20219;-77
2022/06/06 07:41:41;;;;;;;15.52;6.05;;;;;;;30.34;48.45;94474.47;5050317;28;20203;-75
2022/06/06 07:44:25;;;;;;;13.07;7.90;;;;;;;30.12;49.42;94484.13;5039713;28;20254;-82
2022/06/06 07:47:01;;;;;;;13.38;8.00;;;;;;;29.88;50.78;94481.03;5049407;28;20224;-75
2022/06/06 07:49:40;;;;;;;12.20;7.47;;;;;;;31.44;49.09;94469.16;5050170;28;20555;-78
2022/06/06 07:52:16;;;;;;;10.48;7.72;;;;;;;29.98;50.36;94474.28;5038083;28;20231;-78
2022/06/06 07:54:53;;;;;;;13.57;7.50;;;;;;;29.79;50.97;94478.19;5051699;28;20545;-74
2022/06/06 07:57:33;;;;;;;12.25;7.15;;;;;;;29.74;51.83;94482.34;5053389;28;20227;-82
2022/06/06 08:00:06;;;;;;;17.90;7.63;;;;;;;31.16;49.10;94479.59;5054404;28;20195;-82
2022/06/06 08:02:56;;;;;;;11.23;7.15;;;;;;;29.94;50.78;94490.38;5054310;28;20267;-85
2022/06/06 08:05:53;;;;;;;13.98;7.07;;;;;;;30.31;48.57;94475.41;5054335;28;20230;-81
2022/06/06 08:08:30;;;;;;;14.63;6.22;;;;;;;31.00;48.34;94477.81;5037855;28;20223;-84
2022/06/06 08:11:09;;;;;;;9.23;4.43;;;;;;;27.94;50.64;94489.81;5054000;28;20266;-79
2022/06/06 08:13:45;;;;;;;7.65;4.03;;;;;;;27.50;54.51;94489.44;5043935;28;20281;-80
2022/06/06 08:16:21;;;;;;;13.02;4.75;;;;;;;27.91;52.61;94485.13;5053607;28;20767;-79
2022/06/06 08:19:19;;;;;;;12.98;3.83;;;;;;;26.66;54.98;94498.75;5053395;28;20219;-77
2022/06/06 08:21:47;;;;;;;11.93;3.97;;;;;;;26.42;55.16;94500.91;5052270;28;20285;-79
2022/06/06 08:24:19;;;;;;;10.30;3.88;;;;;;;26.61;55.25;94502.06;5046001;28;20281;-77
2022/06/06 08:26:49;;;;;;;14.57;5.43;;;;;;;26.07;58.54;94508.03;5045504;28;20215;-78
2022/06/06 08:29:18;;;;;;;7.95;4.13;;;;;;;25.47;60.45;94526.69;5049348;28;20290;-76
2022/06/06 08:31:45;;;;;;;10.98;4.43;;;;;;;25.45;60.62;94515.22;5052770;28;20231;-77
2022/06/06 08:34:12;;;;;;;9.38;4.35;;;;;;;25.92;59.55;94517.88;5051441;28;20208;-75
2022/06/06 08:37:13;;;;;;;11.25;4.45;;;;;;;26.02;56.97;94519.66;5053653;28;20293;-77
2022/06/06 08:39:52;;;;;;;9.63;3.92;;;;;;;26.00;57.20;94513.75;5053186;28;20200;-80
2022/06/06 08:42:34;;;;;;;11.70;3.58;;;;;;;26.11;55.65;94508.72;5053035;28;20223;-79
2022/06/06 08:45:16;;;;;;;10.13;3.75;;;;;;;25.94;55.64;94501.59;5053662;28;20219;-79
2022/06/06 08:47:56;;;;;;;5.68;2.80;;;;;;;25.33;55.15;94493.66;5053490;28;20204;-78
2022/06/06 08:50:46;;;;;;;7.72;3.65;;;;;;;25.06;57.41;94509.63;5052812;28;20216;-82
2022/06/06 08:53:57;;;;;;;8.05;3.70;;;;;;;24.72;57.76;94526.44;5053617;28;20742;-80
2022/06/06 08:56:52;;;;;;;10.23;3.40;;;;;;;24.26;58.77;94543.75;5053365;28;20204;-79
2022/06/06 09:00:03;;;;;;;8.20;3.28;;;;;;;24.11;61.60;94526.50;5053272;28;20226;-80
2022/06/06 09:03:08;;;;;;;7.70;3.95;;;;;;;24.08;63.59;94535.66;5045973;28;20215;-81
2022/06/06 09:06:08;;;;;;;4.95;1.98;;;;;;;22.43;61.98;94564.53;5033136;28;20239;-76
2022/06/06 09:09:11;;;;;;;1.88;1.50;;;;;;;21.70;62.48;94550.72;5042732;28;20219;-79
2022/06/06 09:12:22;;;;;;;2.47;1.55;;;;;;;21.06;65.35;94568.19;5050097;28;20212;-81
2022/06/06 09:15:27;;;;;;;8.00;2.53;;;;;;;20.52;68.46;94575.69;5039985;28;20239;-82
2022/06/06 09:18:39;;;;;;;6.22;2.38;;;;;;;20.25;70.96;94582.69;5053311;28;20223;-79
2022/06/06 09:21:39;;;;;;;7.32;2.58;;;;;;;19.55;75.61;94597.75;5032184;28;20219;-73
2022/06/06 09:24:42;;;;;;;4.15;2.20;;;;;;;18.91;82.69;94608.34;5052578;28;20211;-78
2022/06/06 09:27:47;;;;;;;7.15;3.20;;;;;;;18.73;83.34;94629.34;5041660;28;20257;-72
2022/06/06 09:30:30;;;;;;;6.03;3.17;;;;;;;18.92;86.53;94653.84;5052295;28;20187;-73
2022/06/06 09:33:32;;;;;;;15.10;5.15;;;;;;;19.36;85.90;94639.25;5051560;28;20192;-73
2022/06/06 09:36:23;;;;;;;4.63;2.80;;;;;;;19.99;83.91;94627.81;5040948;28;20314;-73
2022/06/06 09:39:08;;;;;;;4.30;2.78;;;;;;;20.54;77.83;94608.31;5052801;28;20200;-74
2022/06/06 09:41:40;;;;;;;9.15;2.85;;;;;;;21.17;78.10;94587.47;5052431;28;20220;-74
2022/06/06 09:44:23;;;;;;;3.70;2.47;;;;;;;21.92;77.49;94599.88;5047196;28;20219;-75
2022/06/06 09:47:45;;;;;;;7.93;2.28;;;;;;;22.44;68.17;94600.00;5049848;28;20212;-76
2022/06/06 09:50:56;;;;;;;6.60;3.47;;;;;;;22.76;67.89;94596.25;4984794;28;20226;-76
2022/06/06 10:00:21;;;;;;;3.88;1.77;;;;;;;24.36;64.52;94567.72;5050457;28;20709;-74
2022/06/06 10:03:27;;;;;;;5.40;2.30;;;;;;;25.13;56.78;94556.66;5051849;28;20655;-78
2022/06/06 10:06:29;;;;;;;3.53;2.50;;;;;;;25.67;54.60;94568.34;5051986;28;20730;-76
2022/06/06 10:09:20;;;;;;;5.47;2.40;;;;;;;26.13;53.70;94572.94;5052460;28;20554;-76
2022/06/06 10:12:16;;;;;;;4.00;2.00;;;;;;;26.04;50.74;94578.31;5031934;28;20232;-76
2022/06/06 10:14:59;;;;;;;3.53;2.25;;;;;;;26.23;52.53;94573.19;5038929;28;20659;-76
2022/06/06 10:17:44;;;;;;;2.20;2.00;;;;;;;25.80;51.62;94587.94;5051788;28;20726;-75
2022/06/06 10:20:25;;;;;;;3.95;2.30;;;;;;;24.60;54.62;94585.19;5051863;28;20219;-75
2022/06/06 10:23:07;;;;;;;3.20;2.47;;;;;;;24.84;54.82;94588.78;5038975;28;20203;-75
2022/06/06 10:25:53;;;;;;;3.67;2.33;;;;;;;23.92;57.32;94608.19;5047334;28;20697;-75
2022/06/06 10:28:41;;;;;;;6.18;2.30;;;;;;;23.24;60.78;94624.69;5051805;28;20286;-74
2022/06/06 10:31:20;;;;;;;3.47;2.17;;;;;;;22.79;66.01;94614.81;5040588;28;20273;-74
2022/06/06 10:34:13;;;;;;;5.05;2.78;;;;;;;22.35;64.81;94610.72;5051752;28;20196;-77
2022/06/06 10:37:00;;;;;;;8.75;2.80;;;;;;;21.94;70.88;94597.50;5051310;28;20200;-73
2022/06/06 10:39:47;;;;;;;4.70;2.75;;;;;;;21.71;71.67;94608.22;5050935;28;20235;-72
2022/06/06 10:42:32;;;;;;;8.75;2.80;;;;;;;21.69;72.39;94610.59;5050389;28;20783;-72
2022/06/06 10:45:27;;;;;;;4.10;2.35;;;;;;;21.59;68.77;94600.41;5051357;28;20207;-71
2022/06/06 10:48:22;;;;;;;4.03;2.47;;;;;;;21.20;67.63;94601.25;5050024;28;20223;-73
2022/06/06 10:54:28;;;;;;;4.25;2.40;;;;;;;20.94;72.71;94574.09;5045410;28;20222;-74
2022/06/06 10:57:32;;;;;;;8.30;4.18;;;;;;;21.00;77.10;94580.78;5034518;28;20223;-74
2022/06/06 11:00:30;;;;;;;6.05;3.72;;;;;;;21.20;75.84;94595.75;5050183;28;20196;-73
2022/06/06 11:03:20;;;;;;;6.60;2.22;;;;;;;20.70;72.11;94600.47;5041331;28;20212;-73
2022/06/06 11:06:20;;;;;;;6.22;2.47;;;;;;;20.57;72.36;94597.31;5046445;28;20287;-73
2022/06/06 11:09:11;;;;;;;3.45;2.20;;;;;;;20.65;73.27;94603.59;5041163;28;20231;-73
2022/06/06 11:12:20;;;;;;;6.75;2.42;;;;;;;20.91;76.23;94583.13;5031312;28;20312;-74
2022/06/06 11:14:46;;;;;;;5.65;2.67;;;;;;;21.14;75.11;94580.78;5049475;28;20256;-74
2022/06/06 11:17:53;;;;;;;6.85;2.60;;;;;;;21.23;74.12;94589.44;5050210;28;20203;-74
2022/06/06 11:21:01;;;;;;;2.65;2.00;;;;;;;21.46;73.89;94601.97;5041574;28;20226;-74
2022/06/06 11:23:33;;;;;;;4.47;3.10;;;;;;;21.60;71.21;94590.91;5034428;28;20211;-76
2022/06/06 11:26:24;;;;;;;5.93;3.38;;;;;;;22.14;72.84;94594.28;5049008;28;20195;-74
2022/06/06 11:29:21;;;;;;;3.72;2.50;;;;;;;22.53;70.13;94600.38;5048958;28;20658;-74
2022/06/06 11:32:03;;;;;;;4.95;2.25;;;;;;;22.36;67.79;94587.47;5039099;28;20235;-77
2022/06/06 11:35:05;;;;;;;3.42;2.88;;;;;;;22.48;69.01;94584.22;5038340;28;20265;-76
2022/06/06 11:38:01;;;;;;;3.83;2.30;;;;;;;22.47;69.73;94571.59;5036505;28;20767;-76
2022/06/06 11:41:03;;;;;;;5.70;2.63;;;;;;;22.70;69.65;94569.06;5047558;28;20281;-75
2022/06/06 11:44:08;;;;;;;2.95;2.35;;;;;;;22.89;69.39;94576.03;5049181;28;20294;-75
2022/06/06 11:47:15;;;;;;;2.45;2.00;;;;;;;22.44;68.58;94577.94;5049490;28;20231;-74
2022/06/06 11:50:12;;;;;;;4.70;3.13;;;;;;;21.94;69.83;94580.94;5049269;28;20701;-74
2022/06/06 11:53:25;;;;;;;5.47;3.20;;;;;;;22.11;71.43;94581.28;5049038;28;20223;-76
2022/06/06 11:56:04;;;;;;;3.80;3.17;;;;;;;22.57;70.13;94581.78;5041340;28;20227;-76
2022/06/06 11:59:11;;;;;;;5.00;2.90;;;;;;;22.60;68.02;94586.50;5036307;28;20188;-76
2022/06/06 12:02:04;;;;;;;8.45;4.90;;;;;;;22.62;67.88;94578.59;5031369;28;20657;-75
2022/06/06 12:05:17;;;;;;;3.70;2.75;;;;;;;22.40;67.48;94571.66;5049037;28;20725;-76
2022/06/06 12:08:16;;;;;;;3.45;2.92;;;;;;;22.47;68.14;94579.09;4998993;28;20476;-80
2022/06/06 12:10:58;;;;;;;5.18;3.67;;;;;;;22.94;67.77;94577.59;4987208;28;20245;-79
2022/06/06 12:13:52;;;;;;;5.57;3.40;;;;;;;23.13;65.99;94565.97;5027512;28;20232;-79
2022/06/06 12:16:29;;;;;;;4.82;3.88;;;;;;;23.02;65.35;94568.03;5036408;28;20224;-80
2022/06/06 12:19:20;;;;;;;3.63;2.55;;;;;;;22.90;65.36;94565.78;5034098;28;20208;-79
2022/06/06 12:22:31;;;;;;;4.78;2.95;;;;;;;22.97;64.84;94554.66;5049206;28;20291;-79
2022/06/06 12:25:42;;;;;;;5.72;2.45;;;;;;;23.02;64.81;94534.88;5007093;28;20261;-77
2022/06/06 12:28:53;;;;;;;6.93;2.58;;;;;;;22.64;66.41;94521.00;5041223;28;20188;-78
2022/06/06 12:31:43;;;;;;;4.43;2.95;;;;;;;22.43;66.38;94532.19;5039143;28;20239;-78
2022/06/06 12:34:18;;;;;;;4.82;3.22;;;;;;;22.53;66.97;94547.91;5035958;28;20196;-79
2022/06/06 12:36:54;;;;;;;5.63;4.25;;;;;;;22.46;67.11;94550.69;5048689;28;20698;-79
2022/06/06 12:39:33;;;;;;;6.15;2.55;;;;;;;22.38;66.25;94557.47;5039503;28;20727;-79
2022/06/06 12:42:11;;;;;;;7.25;3.38;;;;;;;22.44;66.18;94566.09;5049139;28;20764;-81
2022/06/06 12:45:11;;;;;;;9.77;3.15;;;;;;;22.57;66.58;94572.72;5052678;28;20219;-80
2022/06/06 12:47:54;;;;;;;9.55;2.67;;;;;;;22.57;66.89;94570.72;5042707;28;20288;-79
2022/06/06 12:50:39;;;;;;;6.88;3.60;;;;;;;22.23;66.64;94572.56;5052255;28;20644;-78
2022/06/06 12:53:43;;;;;;;5.82;3.72;;;;;;;21.95;68.19;94565.97;5051883;28;20304;-79
2022/06/06 12:56:23;;;;;;;7.63;4.35;;;;;;;22.12;68.69;94561.59;5051594;28;20199;-79
2022/06/06 12:59:04;;;;;;;6.03;3.55;;;;;;;22.21;67.94;94541.81;5052330;28;20227;-80
2022/06/06 13:01:42;;;;;;;5.35;2.80;;;;;;;22.40;66.89;94527.50;5052047;28;20259;-79